Time;durP1;ratioP1;P1;durP2;ratioP2;P2;SDS_P1;SDS_P2;PMS_P1;PMS_P2;Temp;Humidity;BMP_temperature;BMP_pressure;BME280_temperature;BME280_humidity;BME280_pressure;Samples;Min_cycle;Max_cycle;Signal;HPM_P1;HPM_P2
2023/04/09 00:00:40;;;;;;;22.20;11.00;;;;;;;10.49;57.45;102496.69;4993635;28;97257;-51
2023/04/09 00:03:05;;;;;;;15.03;9.40;;;;;;;10.44;57.59;102492.50;4994535;28;97152;-50
2023/04/09 00:05:31;;;;;;;17.67;10.13;;;;;;;10.40;57.68;102497.38;4995368;28;97147;-50
2023/04/09 00:07:56;;;;;;;16.40;10.20;;;;;;;10.38;57.49;102493.53;4991860;28;97355;-51
2023/04/09 00:10:22;;;;;;;18.30;10.67;;;;;;;10.34;57.58;102496.41;4993986;28;97248;-50
2023/04/09 00:12:47;;;;;;;21.43;10.33;;;;;;;10.32;57.44;102498.06;4996004;28;98018;-52
2023/04/09 00:15:12;;;;;;;17.63;9.97;;;;;;;10.28;57.64;102503.69;4994921;28;97126;-50
2023/04/09 00:17:38;;;;;;;21.40;11.40;;;;;;;10.24;57.64;102502.28;4995802;28;97181;-50
2023/04/09 00:20:04;;;;;;;25.60;10.63;;;;;;;10.20;57.72;102501.63;4994373;28;97082;-49
2023/04/09 00:22:29;;;;;;;21.10;11.50;;;;;;;10.18;57.81;102504.03;4995709;28;96710;-50
2023/04/09 00:24:56;;;;;;;21.40;11.30;;;;;;;10.17;57.82;102502.50;4996149;28;97026;-50
2023/04/09 00:27:21;;;;;;;21.97;11.23;;;;;;;10.15;57.71;102499.44;4992777;28;97268;-50
2023/04/09 00:29:47;;;;;;;20.77;11.93;;;;;;;10.16;57.80;102501.75;4992584;28;97037;-50
2023/04/09 00:32:12;;;;;;;25.83;13.20;;;;;;;10.17;57.73;102497.78;4990680;28;97341;-50
2023/04/09 00:34:38;;;;;;;26.17;12.43;;;;;;;10.17;57.82;102492.28;4995599;28;96674;-51
2023/04/09 00:37:03;;;;;;;26.13;12.53;;;;;;;10.17;57.82;102494.25;4994290;28;97317;-50
2023/04/09 00:39:29;;;;;;;22.43;13.20;;;;;;;10.17;57.69;102497.00;4994346;28;97194;-50
2023/04/09 00:41:57;;;;;;;25.23;14.20;;;;;;;10.16;57.73;102492.72;4994574;28;96784;-51
2023/04/09 00:44:23;;;;;;;24.63;13.53;;;;;;;10.16;57.73;102492.72;4999012;28;97008;-50
2023/04/09 00:46:48;;;;;;;26.37;13.17;;;;;;;10.14;57.83;102495.91;4996468;28;96894;-50
2023/04/09 00:49:14;;;;;;;30.50;13.17;;;;;;;10.16;57.94;102501.75;4997427;28;97153;-50
2023/04/09 00:51:39;;;;;;;29.10;13.13;;;;;;;10.17;57.95;102492.28;4998813;28;96975;-50
2023/04/09 00:54:06;;;;;;;26.53;12.53;;;;;;;10.19;57.95;102498.09;4998975;28;97140;-50
2023/04/09 00:56:31;;;;;;;30.30;13.10;;;;;;;10.22;57.93;102493.72;4996218;28;96885;-49
2023/04/09 00:58:57;;;;;;;27.67;12.90;;;;;;;10.22;58.08;102494.44;4997285;28;97411;-50
2023/04/09 01:01:22;;;;;;;29.90;14.20;;;;;;;10.22;58.05;102491.69;4996902;28;103935;-49
2023/04/09 01:03:47;;;;;;;29.03;12.50;;;;;;;10.24;58.07;102496.78;4999133;28;96746;-50
2023/04/09 01:06:25;;;;;;;23.60;12.50;;;;;;;10.27;58.49;102490.38;4998290;28;97237;-51
2023/04/09 01:08:56;;;;;;;27.33;11.10;;;;;;;10.29;58.10;102490.69;4996816;28;97548;-49
2023/04/09 01:11:26;;;;;;;23.90;12.10;;;;;;;10.31;58.10;102491.78;4996226;28;97498;-51
2023/04/09 01:13:58;;;;;;;23.23;12.87;;;;;;;10.32;58.42;102496.09;4997294;28;96913;-49
2023/04/09 01:16:23;;;;;;;27.10;13.10;;;;;;;10.29;58.07;102493.44;4999164;28;97344;-49
2023/04/09 01:18:58;;;;;;;25.17;12.70;;;;;;;10.32;58.49;102498.84;4996262;28;97593;-50
2023/04/09 01:21:28;;;;;;;27.03;12.50;;;;;;;10.29;58.19;102488.72;4994959;28;96881;-49
2023/04/09 01:24:20;;;;;;;29.77;14.00;;;;;;;10.30;59.03;102490.28;4994926;28;96823;-50
2023/04/09 01:27:02;;;;;;;23.03;12.73;;;;;;;10.31;58.87;102485.53;4996984;28;97176;-54
2023/04/09 01:29:31;;;;;;;26.97;13.10;;;;;;;10.31;58.39;102491.78;4994958;28;97015;-49
2023/04/09 01:31:58;;;;;;;24.53;12.63;;;;;;;10.32;58.33;102481.56;4998062;28;97320;-50
2023/04/09 01:34:25;;;;;;;25.90;13.40;;;;;;;10.29;58.31;102477.72;4994195;28;97404;-50
2023/04/09 01:36:57;;;;;;;26.23;13.33;;;;;;;10.26;58.80;102472.34;4996174;28;97466;-52
2023/04/09 01:39:23;;;;;;;22.47;12.00;;;;;;;10.26;58.51;102472.34;4995839;28;97371;-51
2023/04/09 01:41:50;;;;;;;29.03;13.47;;;;;;;10.26;58.56;102478.63;4997934;28;97880;-51
2023/04/09 01:44:17;;;;;;;26.30;13.97;;;;;;;10.26;58.52;102473.13;4995836;28;96882;-50
2023/04/09 01:46:42;;;;;;;23.10;12.70;;;;;;;10.26;58.49;102467.63;4998915;28;97139;-49
2023/04/09 01:49:11;;;;;;;27.27;13.30;;;;;;;10.28;58.73;102472.66;4993272;28;97372;-50
2023/04/09 01:51:37;;;;;;;30.00;14.00;;;;;;;10.27;58.56;102468.38;4996454;28;98205;-50
2023/04/09 01:54:03;;;;;;;25.70;13.33;;;;;;;10.25;58.38;102466.06;4995051;28;96766;-51
2023/04/09 01:56:39;;;;;;;27.20;13.80;;;;;;;10.20;58.98;102465.88;4997931;28;97282;-50
2023/04/09 01:59:04;;;;;;;25.90;13.30;;;;;;;10.17;58.64;102467.53;4997710;28;97001;-50
2023/04/09 02:01:40;;;;;;;27.60;13.60;;;;;;;10.14;58.97;102460.16;4995789;28;96944;-50
2023/04/09 02:04:14;;;;;;;24.70;12.00;;;;;;;10.11;58.80;102461.03;4994922;28;97059;-49
2023/04/09 02:06:45;;;;;;;23.87;13.10;;;;;;;10.11;58.78;102460.28;4996794;28;97141;-51
2023/04/09 02:09:11;;;;;;;22.90;12.00;;;;;;;10.07;58.89;102460.38;4992681;28;97925;-50
2023/04/09 02:11:39;;;;;;;30.23;13.80;;;;;;;10.04;58.77;102457.75;4994215;28;97155;-50
2023/04/09 02:14:07;;;;;;;29.37;13.73;;;;;;;10.04;58.73;102455.00;4996462;28;96757;-49
2023/04/09 02:16:33;;;;;;;28.43;14.10;;;;;;;10.01;58.98;102456.66;4999356;28;96729;-51
2023/04/09 02:19:01;;;;;;;24.73;14.00;;;;;;;10.00;58.97;102462.59;4993824;28;97832;-50
2023/04/09 02:21:28;;;;;;;27.00;12.70;;;;;;;9.95;58.77;102460.41;4993584;28;96942;-50
2023/04/09 02:23:57;;;;;;;27.37;14.23;;;;;;;9.91;58.89;102457.78;4996830;28;97378;-51
2023/04/09 02:26:23;;;;;;;29.33;13.87;;;;;;;9.87;58.80;102459.88;4996126;28;96715;-50
2023/04/09 02:28:48;;;;;;;27.20;13.13;;;;;;;9.85;58.99;102462.28;4993621;28;98035;-49
2023/04/09 02:31:14;;;;;;;26.47;13.20;;;;;;;9.82;59.06;102457.69;4998615;28;97738;-50
2023/04/09 02:33:39;;;;;;;26.43;12.80;;;;;;;9.81;59.09;102453.38;4995830;28;96827;-51
2023/04/09 02:36:05;;;;;;;31.70;14.20;;;;;;;9.79;59.07;102461.31;4994959;28;97267;-49
2023/04/09 02:38:30;;;;;;;29.43;13.30;;;;;;;9.77;59.00;102458.25;4996526;28;96893;-50
2023/04/09 02:40:56;;;;;;;26.87;12.40;;;;;;;9.76;59.03;102462.97;4994790;28;97064;-50
2023/04/09 02:43:21;;;;;;;25.27;13.67;;;;;;;9.75;59.02;102466.16;4997505;28;97329;-50
2023/04/09 02:45:47;;;;;;;29.03;13.50;;;;;;;9.73;59.15;102468.59;4995037;28;96799;-50
2023/04/09 02:48:12;;;;;;;29.47;14.27;;;;;;;9.72;59.19;102465.06;4995113;28;97359;-50
2023/04/09 02:50:37;;;;;;;24.73;13.40;;;;;;;9.70;59.06;102467.47;4998200;28;102058;-49
2023/04/09 02:53:03;;;;;;;25.77;13.23;;;;;;;9.69;59.17;102467.94;4994694;28;97100;-51
2023/04/09 02:55:28;;;;;;;23.40;11.30;;;;;;;9.70;59.00;102464.75;4996010;28;97542;-51
2023/04/09 02:57:53;;;;;;;25.10;11.97;;;;;;;9.68;59.16;102455.38;4992521;28;97294;-50
2023/04/09 03:00:19;;;;;;;21.10;11.27;;;;;;;9.68;59.16;102460.88;4994496;28;110025;-50
2023/04/09 03:02:44;;;;;;;22.70;11.70;;;;;;;9.67;59.21;102460.16;4995029;28;96803;-51
2023/04/09 03:05:10;;;;;;;21.37;11.27;;;;;;;9.68;59.13;102463.63;4992565;28;96949;-50
2023/04/09 03:07:35;;;;;;;22.40;11.80;;;;;;;9.67;59.08;102465.63;4993076;28;96674;-49
2023/04/09 03:10:00;;;;;;;20.67;11.37;;;;;;;9.68;58.90;102463.63;4995725;28;97079;-50
2023/04/09 03:12:26;;;;;;;20.30;11.00;;;;;;;9.65;59.06;102462.53;4992701;28;96994;-50
2023/04/09 03:14:51;;;;;;;15.93;10.27;;;;;;;9.63;59.18;102464.22;4994652;28;96922;-50
2023/04/09 03:17:16;;;;;;;21.30;12.00;;;;;;;9.60;59.39;102454.09;4998025;28;97557;-50
2023/04/09 03:19:41;;;;;;;22.00;11.10;;;;;;;9.54;59.11;102456.63;4995877;28;97123;-50
2023/04/09 03:22:07;;;;;;;21.83;11.97;;;;;;;9.50;59.17;102446.97;4994378;28;97660;-49
2023/04/09 03:24:32;;;;;;;21.87;12.27;;;;;;;9.49;59.25;102445.41;4996047;28;96969;-50
2023/04/09 03:26:58;;;;;;;24.00;12.70;;;;;;;9.46;59.29;102447.06;4996277;28;97823;-50
2023/04/09 03:29:23;;;;;;;24.00;12.90;;;;;;;9.44;59.16;102445.97;4997102;28;97743;-50
2023/04/09 03:31:48;;;;;;;26.30;12.67;;;;;;;9.43;58.88;102447.97;4996517;28;97415;-50
2023/04/09 03:34:14;;;;;;;27.13;12.07;;;;;;;9.43;59.28;102452.69;4994864;28;96906;-52
2023/04/09 03:36:39;;;;;;;21.60;11.83;;;;;;;9.45;59.28;102447.50;4992304;28;97372;-50
2023/04/09 03:39:05;;;;;;;21.30;11.30;;;;;;;9.46;59.27;102449.81;4993635;28;97670;-50
2023/04/09 03:41:30;;;;;;;27.53;13.53;;;;;;;9.45;59.25;102442.03;4993707;28;97042;-51
2023/04/09 03:43:56;;;;;;;22.83;12.60;;;;;;;9.43;59.47;102445.22;4994536;28;97121;-50
2023/04/09 03:46:21;;;;;;;27.47;13.00;;;;;;;9.43;59.36;102442.47;4994095;28;97718;-50
2023/04/09 03:48:46;;;;;;;20.00;12.27;;;;;;;9.45;59.37;102447.50;4995796;28;97932;-51
2023/04/09 03:51:15;;;;;;;25.47;12.47;;;;;;;9.45;59.25;102442.03;4995354;28;97556;-50
2023/04/09 03:53:41;;;;;;;21.97;11.77;;;;;;;9.41;59.12;102436.66;4997538;28;97116;-51
2023/04/09 03:56:07;;;;;;;21.87;11.97;;;;;;;9.36;59.13;102436.41;4991627;28;97094;-50
2023/04/09 03:58:33;;;;;;;26.53;13.10;;;;;;;9.21;59.20;102436.09;4997225;28;97290;-51
2023/04/09 04:00:58;;;;;;;20.73;12.20;;;;;;;9.14;59.50;102446.50;4994018;28;97240;-50
2023/04/09 04:03:23;;;;;;;21.27;12.50;;;;;;;9.09;59.42;102436.09;4992136;28;97603;-50
2023/04/09 04:05:49;;;;;;;21.90;11.50;;;;;;;9.03;59.47;102444.88;4995105;28;98016;-50
2023/04/09 04:08:15;;;;;;;22.77;11.50;;;;;;;8.98;59.53;102450.88;4991941;28;97114;-50
2023/04/09 04:10:40;;;;;;;21.43;11.27;;;;;;;8.97;59.51;102449.38;4996571;28;97104;-49
2023/04/09 04:13:07;;;;;;;20.67;10.63;;;;;;;8.96;59.65;102449.78;4994165;28;96903;-52
2023/04/09 04:15:33;;;;;;;19.63;11.30;;;;;;;8.98;59.63;102456.38;4999052;28;99215;-49
2023/04/09 04:17:58;;;;;;;21.17;11.40;;;;;;;8.99;59.42;102455.19;4992944;28;97260;-50
2023/04/09 04:20:23;;;;;;;22.03;11.40;;;;;;;9.01;59.60;102452.78;4995339;28;96927;-50
2023/04/09 04:22:49;;;;;;;22.33;11.17;;;;;;;9.03;59.49;102452.31;4993265;28;97680;-50
2023/04/09 04:25:14;;;;;;;21.17;11.93;;;;;;;9.04;59.64;102453.88;4994095;28;97530;-50
2023/04/09 04:27:42;;;;;;;19.73;10.43;;;;;;;9.04;59.68;102453.88;4993538;28;97825;-50
2023/04/09 04:30:08;;;;;;;23.43;11.10;;;;;;;9.06;59.52;102454.22;4993595;28;97105;-50
2023/04/09 04:32:34;;;;;;;19.60;11.00;;;;;;;9.10;59.71;102465.06;4994280;28;96768;-50
2023/04/09 04:34:59;;;;;;;22.20;12.10;;;;;;;9.13;59.61;102458.72;4991999;28;97177;-50
2023/04/09 04:37:24;;;;;;;21.20;11.50;;;;;;;9.14;59.54;102458.28;4995992;28;100403;-51
2023/04/09 04:39:50;;;;;;;26.47;12.73;;;;;;;9.13;59.73;102459.47;4993456;28;96820;-50
2023/04/09 04:42:16;;;;;;;27.00;12.83;;;;;;;9.14;59.50;102455.53;4993142;28;97477;-50
2023/04/09 04:44:43;;;;;;;22.43;12.40;;;;;;;9.11;59.38;102463.88;4992614;28;96847;-50
2023/04/09 04:47:08;;;;;;;23.07;12.37;;;;;;;9.08;59.35;102468.25;4994454;28;97381;-50
2023/04/09 04:49:33;;;;;;;22.33;12.07;;;;;;;9.07;59.71;102459.25;4994546;28;97662;-50
2023/04/09 04:51:59;;;;;;;23.63;12.00;;;;;;;9.05;59.65;102456.19;4991811;28;97300;-50
2023/04/09 04:54:24;;;;;;;22.43;11.67;;;;;;;9.09;59.42;102453.31;4991901;28;96739;-50
2023/04/09 04:56:50;;;;;;;19.43;11.33;;;;;;;9.11;59.53;102461.88;4992499;28;97241;-50
2023/04/09 04:59:15;;;;;;;23.70;12.67;;;;;;;9.12;59.64;102462.66;4992748;28;97132;-50
2023/04/09 05:01:40;;;;;;;20.17;10.83;;;;;;;9.12;59.66;102457.94;4993101;28;97344;-51
2023/04/09 05:04:06;;;;;;;21.73;11.43;;;;;;;9.13;59.62;102461.47;4993561;28;106539;-51
2023/04/09 05:06:32;;;;;;;19.07;11.50;;;;;;;9.14;59.77;102469.25;4993079;28;110551;-50
2023/04/09 05:08:57;;;;;;;18.83;11.67;;;;;;;9.14;59.81;102462.97;4994666;28;96668;-50
2023/04/09 05:11:24;;;;;;;21.17;11.27;;;;;;;9.14;59.69;102461.00;4994549;28;97355;-50
2023/04/09 05:13:49;;;;;;;18.60;11.07;;;;;;;9.10;59.76;102462.31;4994050;28;97919;-50
2023/04/09 05:16:17;;;;;;;20.33;12.20;;;;;;;9.15;59.83;102467.28;4994146;28;96814;-50
2023/04/09 05:18:42;;;;;;;17.30;10.63;;;;;;;9.17;59.86;102471.13;4992623;28;97213;-50
2023/04/09 05:21:07;;;;;;;17.23;11.00;;;;;;;9.21;59.80;102465.53;4992258;28;97062;-50
2023/04/09 05:23:33;;;;;;;17.67;10.80;;;;;;;9.24;59.69;102461.91;4993074;28;97762;-51
2023/04/09 05:25:58;;;;;;;20.47;11.30;;;;;;;9.28;59.83;102462.56;4993334;28;109396;-50
2023/04/09 05:28:23;;;;;;;17.43;10.50;;;;;;;9.28;59.78;102463.34;4996036;28;96733;-50
2023/04/09 05:30:49;;;;;;;19.70;12.00;;;;;;;9.29;59.88;102470.38;4996201;28;97167;-49
2023/04/09 05:33:14;;;;;;;16.47;10.03;;;;;;;9.33;59.77;102467.50;4995613;28;97390;-51
2023/04/09 05:35:40;;;;;;;18.40;10.03;;;;;;;9.35;59.90;102471.34;4999121;28;96698;-50
2023/04/09 05:38:05;;;;;;;19.20;11.20;;;;;;;9.38;60.02;102469.69;4997921;28;96696;-51
2023/04/09 05:40:31;;;;;;;16.77;10.70;;;;;;;9.43;60.02;102471.91;4996477;28;97166;-50
2023/04/09 05:42:56;;;;;;;17.87;10.40;;;;;;;9.45;59.90;102473.00;4998670;28;96870;-50
2023/04/09 05:45:21;;;;;;;19.57;12.10;;;;;;;9.44;60.05;102474.22;4995403;28;97141;-50
2023/04/09 05:47:47;;;;;;;17.80;10.20;;;;;;;9.46;60.04;102471.78;4996577;28;97170;-50
2023/04/09 05:50:12;;;;;;;16.57;9.90;;;;;;;9.53;59.92;102476.28;4997307;28;96625;-50
2023/04/09 05:52:37;;;;;;;18.63;10.50;;;;;;;9.56;59.89;102472.69;4995859;28;106475;-50
2023/04/09 05:55:04;;;;;;;16.73;10.57;;;;;;;9.59;59.69;102469.81;4995756;28;98821;-50
2023/04/09 05:57:30;;;;;;;16.60;10.60;;;;;;;9.61;59.62;102478.38;4996954;28;96908;-50
2023/04/09 05:59:55;;;;;;;17.27;9.70;;;;;;;9.63;59.75;102475.19;4998307;28;96962;-49
2023/04/09 06:02:21;;;;;;;19.23;10.90;;;;;;;9.66;59.98;102471.56;4995546;28;97333;-50
2023/04/09 06:04:46;;;;;;;14.67;9.83;;;;;;;9.67;59.83;102476.63;4996314;28;97393;-50
2023/04/09 06:07:12;;;;;;;23.10;11.53;;;;;;;9.75;59.89;102479.91;4993876;28;97136;-50
2023/04/09 06:09:37;;;;;;;18.10;10.87;;;;;;;9.76;59.83;102475.97;4996333;28;97063;-50
2023/04/09 06:12:03;;;;;;;19.57;11.40;;;;;;;9.80;59.81;102480.13;4999683;28;96889;-50
2023/04/09 06:14:28;;;;;;;22.33;11.90;;;;;;;9.79;59.80;102483.31;4996252;28;97315;-50
2023/04/09 06:16:54;;;;;;;20.43;11.27;;;;;;;9.83;59.80;102487.47;4995341;28;96968;-50
2023/04/09 06:19:19;;;;;;;19.60;10.50;;;;;;;9.86;59.82;102496.81;4997404;28;97175;-50
2023/04/09 06:21:44;;;;;;;19.30;10.53;;;;;;;9.90;59.90;102494.72;4993702;28;97366;-50
2023/04/09 06:24:10;;;;;;;17.50;10.47;;;;;;;9.91;59.90;102490.00;4994189;28;97184;-50
2023/04/09 06:26:35;;;;;;;15.73;10.33;;;;;;;9.93;59.93;102496.59;4994312;28;97269;-50
2023/04/09 06:29:01;;;;;;;18.20;11.03;;;;;;;9.98;59.73;102495.28;4993730;28;97236;-51
2023/04/09 06:31:26;;;;;;;15.97;10.23;;;;;;;9.99;59.81;102492.06;4995572;28;97511;-50
2023/04/09 06:33:51;;;;;;;20.70;12.40;;;;;;;10.04;59.86;102496.25;4997114;28;97128;-50
2023/04/09 06:36:16;;;;;;;17.87;11.33;;;;;;;10.08;59.88;102502.38;4992705;28;96893;-49
2023/04/09 06:38:42;;;;;;;17.50;10.77;;;;;;;10.15;60.00;102508.47;4992395;28;97141;-49
2023/04/09 06:41:07;;;;;;;18.10;11.50;;;;;;;10.21;59.73;102500.41;4996409;28;97915;-50
2023/04/09 06:43:33;;;;;;;15.83;10.50;;;;;;;10.24;59.93;102494.78;4996904;28;97182;-50
2023/04/09 06:45:58;;;;;;;17.37;10.57;;;;;;;10.34;59.68;102501.91;4994594;28;96977;-51
2023/04/09 06:48:24;;;;;;;14.80;10.30;;;;;;;10.36;59.53;102507.75;4991880;28;96994;-49
2023/04/09 06:50:49;;;;;;;15.00;10.47;;;;;;;10.39;59.68;102503.34;4994893;28;97041;-50
2023/04/09 06:53:15;;;;;;;15.97;10.43;;;;;;;10.43;59.69;102503.97;4994374;28;97186;-49
2023/04/09 06:55:40;;;;;;;18.60;11.27;;;;;;;10.44;59.50;102511.03;4997598;28;97053;-50
2023/04/09 06:58:06;;;;;;;18.33;10.83;;;;;;;10.46;59.58;102514.84;4995388;28;96930;-49
2023/04/09 07:00:31;;;;;;;17.87;9.47;;;;;;;10.50;59.51;102517.50;4995422;28;97513;-50
2023/04/09 07:02:57;;;;;;;13.57;9.13;;;;;;;10.51;59.45;102519.78;4993622;28;97404;-51
2023/04/09 07:05:22;;;;;;;13.50;9.47;;;;;;;10.58;59.39;102524.28;4998412;28;97108;-50
2023/04/09 07:07:48;;;;;;;16.80;9.87;;;;;;;10.64;59.30;102525.25;4996319;28;96827;-50
2023/04/09 07:10:13;;;;;;;13.80;9.90;;;;;;;10.71;59.24;102519.50;4993214;28;96962;-50
2023/04/09 07:12:39;;;;;;;13.50;9.43;;;;;;;10.78;59.16;102522.00;4995193;28;103052;-50
2023/04/09 07:15:06;;;;;;;11.60;8.23;;;;;;;10.84;59.08;102520.19;4996314;28;97299;-50
2023/04/09 07:17:32;;;;;;;11.60;8.63;;;;;;;10.89;59.15;102536.16;4997766;28;97215;-50
2023/04/09 07:19:57;;;;;;;11.60;7.93;;;;;;;10.89;59.11;102516.88;4992896;28;97415;-50
2023/04/09 07:22:25;;;;;;;11.27;8.97;;;;;;;10.90;59.12;102528.66;4991716;28;102199;-49
2023/04/09 07:24:54;;;;;;;12.43;9.00;;;;;;;10.91;58.99;102522.69;4994423;28;96814;-50
2023/04/09 07:27:23;;;;;;;9.73;7.57;;;;;;;10.90;59.07;102523.91;4993870;28;97230;-49
2023/04/09 07:29:49;;;;;;;10.90;7.70;;;;;;;10.96;59.16;102524.09;4993007;28;97465;-51
2023/04/09 07:32:15;;;;;;;8.90;8.00;;;;;;;11.02;59.02;102525.06;4991907;28;96657;-49
2023/04/09 07:34:40;;;;;;;10.03;7.67;;;;;;;11.05;58.92;102533.19;4995488;28;96871;-49
2023/04/09 07:37:06;;;;;;;9.13;7.23;;;;;;;11.13;58.75;102528.19;4993288;28;96942;-50
2023/04/09 07:39:31;;;;;;;9.67;7.37;;;;;;;11.21;58.99;102526.69;4995263;28;97347;-51
2023/04/09 07:41:56;;;;;;;9.37;7.37;;;;;;;11.29;58.73;102525.97;4994576;28;97290;-50
2023/04/09 07:44:23;;;;;;;12.73;8.00;;;;;;;11.41;58.46;102529.09;4993179;28;101235;-50
2023/04/09 07:46:48;;;;;;;11.30;8.07;;;;;;;11.50;58.42;102529.91;4995875;28;97400;-50
2023/04/09 07:49:15;;;;;;;10.90;7.77;;;;;;;11.60;58.16;102528.72;4995238;28;96763;-50
2023/04/09 07:51:40;;;;;;;11.37;7.50;;;;;;;11.68;58.20;102520.97;4995425;28;97237;-50
2023/04/09 07:54:05;;;;;;;10.80;7.40;;;;;;;11.77;57.92;102532.03;4994603;28;97066;-51
2023/04/09 07:56:31;;;;;;;16.30;8.27;;;;;;;11.78;57.72;102526.06;4994941;28;97380;-50
2023/04/09 07:58:56;;;;;;;15.70;10.20;;;;;;;11.58;57.01;102531.16;4993732;28;103828;-49
2023/04/09 08:01:23;;;;;;;14.07;8.43;;;;;;;11.43;57.53;102530.19;4990922;28;105634;-49
2023/04/09 08:03:49;;;;;;;13.40;9.23;;;;;;;11.61;57.88;102546.81;4994264;28;97044;-50
2023/04/09 08:06:15;;;;;;;14.17;9.23;;;;;;;11.71;57.52;102523.59;4996594;28;96687;-50
2023/04/09 08:08:40;;;;;;;12.13;8.80;;;;;;;11.81;57.64;102529.91;4994643;28;97285;-53
2023/04/09 08:11:06;;;;;;;15.80;9.73;;;;;;;11.87;57.58;102519.81;4994167;28;97072;-50
2023/04/09 08:13:31;;;;;;;12.60;8.90;;;;;;;11.94;57.44;102525.81;4995354;28;97004;-50
2023/04/09 08:15:59;;;;;;;13.67;9.20;;;;;;;11.99;57.26;102522.44;4995229;28;96890;-50
2023/04/09 08:18:25;;;;;;;13.60;9.60;;;;;;;12.10;57.00;102524.00;4993927;28;97373;-51
2023/04/09 08:20:50;;;;;;;11.40;8.33;;;;;;;12.08;56.90;102523.69;4993235;28;106647;-49
2023/04/09 08:23:15;;;;;;;14.93;8.63;;;;;;;12.14;56.61;102530.16;4989206;28;97043;-50
2023/04/09 08:25:40;;;;;;;13.97;9.60;;;;;;;12.13;56.65;102521.09;4994784;28;96839;-51
2023/04/09 08:28:07;;;;;;;14.47;9.10;;;;;;;12.16;56.89;102524.94;4994380;28;110219;-50
2023/04/09 08:30:33;;;;;;;12.73;8.90;;;;;;;12.27;56.86;102519.75;4994695;28;97162;-49
2023/04/09 08:33:00;;;;;;;13.03;9.40;;;;;;;12.31;56.66;102531.41;4995790;28;97414;-50
2023/04/09 08:35:25;;;;;;;12.60;9.80;;;;;;;12.44;56.78;102532.78;4991963;28;97412;-50
2023/04/09 08:37:50;;;;;;;14.80;9.13;;;;;;;12.57;56.47;102529.88;4994221;28;97898;-50
2023/04/09 08:40:16;;;;;;;14.40;8.60;;;;;;;12.67;56.67;102534.16;4986490;28;101464;-51
2023/04/09 08:42:45;;;;;;;15.33;10.00;;;;;;;12.78;56.26;102526.94;4993186;28;97321;-50
2023/04/09 08:45:11;;;;;;;14.70;9.73;;;;;;;12.84;55.75;102527.09;4993798;28;96896;-50
2023/04/09 08:47:38;;;;;;;15.37;10.27;;;;;;;12.68;56.04;102519.13;4994255;28;97383;-49
2023/04/09 08:50:04;;;;;;;15.07;9.87;;;;;;;12.79;56.36;102524.97;4994942;28;97380;-52
2023/04/09 08:52:32;;;;;;;10.70;8.60;;;;;;;12.95;55.94;102523.88;4994925;28;96741;-50
2023/04/09 08:54:57;;;;;;;17.10;8.97;;;;;;;13.21;56.17;102517.56;4993143;28;97205;-49
2023/04/09 08:57:22;;;;;;;11.63;8.90;;;;;;;13.51;55.69;102515.75;4989678;28;104207;-52
2023/04/09 08:59:48;;;;;;;13.67;8.90;;;;;;;13.56;55.34;102515.13;4993989;28;97166;-50
2023/04/09 09:02:13;;;;;;;13.00;9.30;;;;;;;13.72;55.43;102511.19;4996712;28;100102;-50
2023/04/09 09:04:47;;;;;;;14.50;9.67;;;;;;;13.93;54.55;102512.94;4998815;28;100461;-50
2023/04/09 09:07:13;;;;;;;13.53;8.63;;;;;;;14.00;54.95;102502.25;4996526;28;97380;-50
2023/04/09 09:09:51;;;;;;;13.53;9.40;;;;;;;14.10;53.98;102502.97;4996099;28;97847;-49
2023/04/09 09:12:33;;;;;;;14.00;9.43;;;;;;;14.12;53.81;102508.78;4996163;28;96988;-49
2023/04/09 09:14:59;;;;;;;12.97;9.37;;;;;;;14.19;54.66;102508.44;4996585;28;96802;-50
2023/04/09 09:17:24;;;;;;;14.40;10.73;;;;;;;14.22;54.29;102501.94;4995732;28;97164;-50
2023/04/09 09:19:50;;;;;;;15.17;9.83;;;;;;;14.28;54.34;102500.09;4997254;28;96771;-50
2023/04/09 09:22:15;;;;;;;15.70;10.37;;;;;;;14.40;54.22;102501.84;4996919;28;97031;-51
2023/04/09 09:24:48;;;;;;;13.40;9.80;;;;;;;14.55;53.31;102501.88;4997478;28;96680;-50
2023/04/09 09:27:35;;;;;;;13.77;9.83;;;;;;;14.66;53.17;102507.63;4995163;28;97466;-50
2023/04/09 09:30:01;;;;;;;14.40;8.73;;;;;;;14.77;53.87;102500.28;4999193;28;97140;-51
2023/04/09 09:32:26;;;;;;;12.33;9.50;;;;;;;14.84;53.41;102507.47;4993938;28;97170;-50
2023/04/09 09:35:03;;;;;;;12.83;9.43;;;;;;;14.77;52.85;102499.53;4995482;28;97020;-50
2023/04/09 09:37:29;;;;;;;12.50;8.80;;;;;;;14.90;53.52;102511.88;4996952;28;97066;-50
2023/04/09 09:39:55;;;;;;;16.50;11.43;;;;;;;14.87;52.89;102509.28;4997055;28;96959;-50
2023/04/09 09:42:21;;;;;;;16.20;10.33;;;;;;;14.71;53.22;102504.97;4996249;28;98346;-50
2023/04/09 09:44:47;;;;;;;13.23;9.83;;;;;;;14.76;53.34;102512.63;4995720;28;97261;-49
2023/04/09 09:47:13;;;;;;;11.60;9.10;;;;;;;14.89;53.40;102510.34;4997618;28;96851;-50
2023/04/09 09:49:39;;;;;;;11.60;9.00;;;;;;;15.01;53.29;102508.50;4995440;28;97286;-50
2023/04/09 09:52:09;;;;;;;13.80;9.60;;;;;;;15.06;52.41;102507.09;4995075;28;96931;-50
2023/04/09 09:54:43;;;;;;;14.37;10.70;;;;;;;15.09;52.38;102500.59;4994182;28;96893;-50
2023/04/09 09:57:12;;;;;;;10.30;8.37;;;;;;;15.15;52.89;102501.44;4995103;28;97437;-50
2023/04/09 09:59:41;;;;;;;14.83;9.17;;;;;;;15.15;52.40;102499.44;4997979;28;96817;-50
2023/04/09 10:02:17;;;;;;;12.90;8.70;;;;;;;15.07;52.54;102503.81;4993049;28;97246;-50
2023/04/09 10:04:43;;;;;;;15.73;10.57;;;;;;;15.08;52.87;102496.28;4995992;28;96987;-50
2023/04/09 10:07:09;;;;;;;14.43;10.50;;;;;;;15.12;52.77;102510.69;4993640;28;96955;-50
2023/04/09 10:09:39;;;;;;;11.77;9.07;;;;;;;15.05;52.62;102500.03;4994590;28;97464;-50
2023/04/09 10:12:06;;;;;;;13.60;10.17;;;;;;;15.14;52.60;102494.34;4995112;28;97261;-50
2023/04/09 10:14:33;;;;;;;16.43;10.50;;;;;;;15.28;52.71;102490.81;4994244;28;97141;-51
2023/04/09 10:16:58;;;;;;;15.30;10.47;;;;;;;15.30;52.34;102491.09;4998148;28;97517;-52
2023/04/09 10:19:24;;;;;;;14.53;10.43;;;;;;;15.31;52.44;102489.88;4995166;28;97014;-50
2023/04/09 10:21:56;;;;;;;16.03;11.40;;;;;;;15.31;52.18;102487.09;4995299;28;97046;-50
2023/04/09 10:24:22;;;;;;;12.93;9.63;;;;;;;15.36;52.46;102489.16;4996099;28;97000;-50
2023/04/09 10:26:47;;;;;;;12.87;10.00;;;;;;;15.46;52.26;102479.53;4995153;28;97487;-50
2023/04/09 10:29:15;;;;;;;11.30;9.47;;;;;;;15.55;52.15;102482.19;4990661;28;98292;-50
2023/04/09 10:31:50;;;;;;;12.90;9.30;;;;;;;15.57;51.41;102474.88;4996515;28;97252;-49
2023/04/09 10:34:25;;;;;;;16.13;10.10;;;;;;;15.58;50.72;102484.75;4993534;28;97417;-50
2023/04/09 10:36:54;;;;;;;14.40;10.30;;;;;;;15.53;51.72;102481.91;4993593;28;97205;-49
2023/04/09 10:39:20;;;;;;;12.70;10.40;;;;;;;15.56;51.82;102473.38;4997296;28;97376;-51
2023/04/09 10:41:48;;;;;;;12.00;9.43;;;;;;;15.67;51.76;102467.22;4996604;28;97093;-50
2023/04/09 10:44:27;;;;;;;16.13;9.27;;;;;;;15.79;50.50;102468.91;4995283;28;97029;-50
2023/04/09 10:46:55;;;;;;;11.63;9.07;;;;;;;15.84;50.98;102470.97;4992068;28;97177;-49
2023/04/09 10:49:22;;;;;;;13.60;9.60;;;;;;;15.93;51.12;102461.75;4993878;28;96862;-51
2023/04/09 10:52:09;;;;;;;14.13;10.20;;;;;;;15.99;49.93;102459.81;4994894;28;97078;-50
2023/04/09 10:54:35;;;;;;;13.13;8.63;;;;;;;16.23;50.94;102458.34;4993043;28;97133;-50
2023/04/09 10:57:06;;;;;;;12.57;9.90;;;;;;;16.41;49.94;102452.47;4995732;28;97363;-50
2023/04/09 10:59:42;;;;;;;13.97;10.30;;;;;;;16.37;50.15;102442.84;4995967;28;97513;-51
2023/04/09 11:02:15;;;;;;;15.07;9.77;;;;;;;16.55;50.42;102450.13;4996622;28;97104;-50
2023/04/09 11:04:56;;;;;;;12.73;10.23;;;;;;;16.80;48.19;102435.44;4995882;28;97183;-50
2023/04/09 11:07:23;;;;;;;14.23;10.63;;;;;;;16.93;49.88;102433.78;4994230;28;97673;-51
2023/04/09 11:09:48;;;;;;;13.20;10.23;;;;;;;17.10;49.74;102445.06;4993702;28;97244;-50
2023/04/09 11:12:13;;;;;;;15.57;11.03;;;;;;;17.18;49.64;102432.22;4994120;28;96890;-52